createdAt,value
2023-05-05T00:03:20.566Z,99.90
2023-05-05T00:07:24.592Z,99.90
2023-05-05T00:11:28.695Z,99.90
2023-05-05T00:15:34.517Z,99.90
2023-05-05T00:19:38.754Z,99.90
2023-05-05T00:23:42.765Z,99.90
2023-05-05T00:27:46.981Z,99.90
2023-05-05T00:31:53.960Z,99.90
2023-05-05T00:35:58.156Z,99.90
2023-05-05T00:40:02.185Z,99.90
2023-05-05T00:44:06.345Z,99.90
2023-05-05T00:48:11.819Z,99.90
2023-05-05T00:52:16.295Z,99.90
2023-05-05T00:56:21.930Z,99.90
2023-05-05T01:00:26.168Z,99.90
2023-05-05T01:04:31.358Z,99.90
2023-05-05T01:08:47.063Z,99.90
2023-05-05T01:12:57.573Z,99.90
2023-05-05T01:17:06.013Z,99.90
2023-05-05T01:21:15.586Z,99.90
2023-05-05T01:26:04.373Z,99.90
2023-05-05T01:30:22.476Z,99.90
2023-05-05T01:34:36.079Z,99.90
2023-05-05T01:38:48.203Z,99.90
2023-05-05T01:42:54.412Z,99.90
2023-05-05T01:46:59.336Z,99.90
2023-05-05T01:51:06.941Z,99.90
2023-05-05T01:55:12.634Z,99.90
2023-05-05T01:59:17.925Z,99.90
2023-05-05T02:03:24.632Z,99.90
2023-05-05T02:07:31.745Z,99.90
2023-05-05T02:11:37.415Z,99.90
2023-05-05T02:15:42.287Z,99.90
2023-05-05T02:19:49.382Z,99.90
2023-05-05T02:23:54.726Z,99.90
2023-05-05T02:28:00.127Z,99.90
2023-05-05T02:32:07.629Z,99.90
2023-05-05T02:36:17.529Z,99.90
2023-05-05T02:40:25.625Z,99.90
2023-05-05T02:44:30.712Z,99.90
2023-05-05T02:48:35.279Z,99.90
2023-05-05T02:52:39.572Z,99.90
2023-05-05T02:56:49.728Z,99.90
2023-05-05T03:01:03.771Z,99.90
2023-05-05T03:05:12.255Z,99.90
2023-05-05T03:09:22.868Z,99.90
2023-05-05T03:13:29.813Z,99.90
2023-05-05T03:17:35.726Z,99.90
2023-05-05T03:21:39.815Z,99.90
2023-05-05T03:25:44.651Z,99.90
2023-05-05T03:29:49.701Z,99.90
2023-05-05T03:33:54.082Z,99.90
2023-05-05T03:37:57.620Z,99.90
2023-05-05T03:42:01.316Z,99.90
2023-05-05T03:46:07.034Z,99.90
2023-05-05T03:50:10.971Z,99.90
2023-05-05T03:54:14.728Z,99.90
2023-05-05T03:58:18.459Z,99.90
2023-05-05T04:02:23.629Z,99.90
2023-05-05T04:06:27.780Z,99.90
2023-05-05T04:10:31.735Z,99.90
2023-05-05T04:14:36.030Z,99.90
2023-05-05T04:18:41.092Z,99.90
2023-05-05T04:22:45.202Z,99.90
2023-05-05T04:26:48.984Z,99.90
2023-05-05T04:30:52.573Z,99.90
2023-05-05T04:34:57.940Z,99.90
2023-05-05T04:39:01.491Z,99.90
2023-05-05T04:43:07.185Z,99.90
2023-05-05T04:47:13.978Z,99.90
2023-05-05T04:51:21.176Z,99.90
2023-05-05T04:55:24.883Z,99.90
2023-05-05T04:59:28.600Z,99.90
2023-05-05T05:03:32.422Z,99.90
2023-05-05T05:07:38.502Z,99.90
2023-05-05T05:11:41.851Z,99.90
2023-05-05T05:15:46.783Z,99.90
2023-05-05T05:19:51.328Z,99.90
2023-05-05T05:23:56.049Z,99.90
2023-05-05T05:28:09.664Z,99.90
2023-05-05T05:32:14.291Z,99.90
2023-05-05T05:36:17.833Z,99.90
2023-05-05T05:40:23.446Z,99.90
2023-05-05T05:44:26.834Z,99.90
2023-05-05T05:48:30.505Z,99.90
2023-05-05T05:52:36.191Z,99.90
2023-05-05T05:56:45.098Z,99.90
2023-05-05T06:00:49.846Z,99.90
2023-05-05T06:04:53.716Z,99.90
2023-05-05T06:08:57.125Z,99.90
2023-05-05T06:13:02.911Z,99.90
2023-05-05T06:17:06.498Z,99.90
2023-05-05T06:21:09.873Z,99.90
2023-05-05T06:25:13.097Z,99.90
2023-05-05T06:29:20.297Z,99.90
2023-05-05T06:33:23.810Z,99.90
2023-05-05T06:37:27.011Z,99.90
2023-05-05T06:41:30.144Z,99.20
2023-05-05T06:45:35.153Z,98.30
2023-05-05T06:49:38.572Z,98.70
2023-05-05T06:53:42.802Z,97.20
2023-05-05T06:57:45.958Z,96.90
2023-05-05T07:01:51.086Z,96.80
2023-05-05T07:05:55.016Z,96.40
2023-05-05T07:09:58.920Z,97.50
2023-05-05T07:14:03.518Z,97.00
2023-05-05T07:18:08.114Z,95.40
2023-05-05T07:22:11.499Z,94.80
2023-05-05T07:26:16.324Z,94.70
2023-05-05T07:30:21.477Z,94.30
2023-05-05T07:34:26.744Z,94.70
2023-05-05T07:38:29.901Z,94.60
2023-05-05T07:42:33.065Z,93.20
2023-05-05T07:46:36.584Z,93.30
2023-05-05T07:50:42.236Z,93.60
2023-05-05T07:54:45.526Z,93.60
2023-05-05T07:58:48.628Z,93.90
2023-05-05T08:02:52.480Z,93.30
2023-05-05T08:06:57.117Z,93.30
2023-05-05T08:11:01.125Z,92.90
2023-05-05T08:15:05.142Z,92.70
2023-05-05T08:19:27.702Z,91.60
2023-05-05T08:23:34.974Z,91.00
2023-05-05T08:27:39.326Z,90.20
2023-05-05T08:31:42.848Z,84.20
2023-05-05T08:35:46.851Z,80.40
2023-05-05T08:39:51.869Z,78.90
2023-05-05T08:43:56.474Z,75.90
2023-05-05T08:48:04.813Z,73.10
2023-05-05T08:52:12.364Z,71.20
2023-05-05T08:56:17.593Z,72.50
2023-05-05T09:00:22.545Z,71.00
2023-05-05T09:04:27.221Z,67.30
2023-05-05T09:08:31.560Z,68.90
2023-05-05T09:12:40.495Z,67.10
2023-05-05T09:16:44.756Z,67.10
2023-05-05T09:20:48.712Z,66.90
2023-05-05T09:24:56.991Z,66.90
2023-05-05T09:29:02.524Z,66.70
2023-05-05T09:33:07.397Z,66.60
2023-05-05T09:37:10.960Z,65.30
2023-05-05T09:41:15.485Z,66.10
2023-05-05T09:45:29.950Z,64.20
2023-05-05T09:49:33.414Z,64.70
2023-05-05T09:53:41.683Z,66.40
2023-05-05T09:57:47.351Z,64.10
2023-05-05T10:01:53.372Z,61.60
2023-05-05T10:05:59.052Z,62.00
2023-05-05T10:10:03.404Z,62.70
2023-05-05T10:14:08.829Z,63.60
2023-05-05T10:18:15.952Z,63.30
2023-05-05T10:22:23.325Z,60.10
2023-05-05T10:26:29.329Z,61.00
2023-05-05T10:30:33.920Z,62.20
2023-05-05T10:34:51.132Z,61.30
2023-05-05T10:38:58.299Z,61.20
2023-05-05T10:43:02.026Z,61.40
2023-05-05T10:47:06.356Z,62.20
2023-05-05T10:51:39.989Z,59.70
2023-05-05T10:55:53.669Z,58.60
2023-05-05T10:59:57.950Z,57.40
2023-05-05T11:04:21.867Z,59.80
2023-05-05T11:08:29.611Z,59.50
2023-05-05T11:12:36.005Z,58.70
2023-05-05T11:16:48.230Z,59.30
2023-05-05T11:21:19.221Z,57.70
2023-05-05T11:25:51.672Z,58.70
2023-05-05T11:30:10.069Z,57.00
2023-05-05T11:34:29.507Z,57.60
2023-05-05T11:39:05.276Z,58.50
2023-05-05T11:43:11.000Z,58.80
2023-05-05T11:47:31.675Z,58.40
2023-05-05T11:51:35.680Z,58.80
2023-05-05T11:55:41.165Z,56.70
2023-05-05T11:59:59.069Z,57.40
2023-05-05T12:04:02.700Z,56.00
2023-05-05T12:08:06.597Z,55.30
2023-05-05T12:12:10.049Z,54.50
2023-05-05T12:16:16.185Z,51.70
2023-05-05T12:20:19.847Z,53.60
2023-05-05T12:24:23.548Z,55.60
2023-05-05T12:28:26.977Z,54.20
2023-05-05T12:32:32.748Z,56.40
2023-05-05T12:36:37.663Z,53.90
2023-05-05T12:40:55.888Z,53.40
2023-05-05T12:44:59.715Z,54.20
2023-05-05T12:49:06.869Z,53.30
2023-05-05T12:53:10.292Z,54.10
2023-05-05T12:57:13.781Z,55.00
2023-05-05T13:01:17.260Z,53.60
2023-05-05T13:05:33.536Z,53.80
2023-05-05T13:09:36.949Z,52.10
2023-05-05T13:13:40.504Z,53.00
2023-05-05T13:17:43.745Z,52.50
2023-05-05T13:21:49.190Z,54.50
2023-05-05T13:25:53.035Z,51.20
2023-05-05T13:29:56.339Z,51.70
2023-05-05T13:34:00.172Z,50.00
2023-05-05T13:38:05.326Z,51.70
2023-05-05T13:42:09.285Z,50.50
2023-05-05T13:46:19.978Z,51.60
2023-05-05T13:50:24.412Z,49.00
2023-05-05T13:54:29.326Z,49.50
2023-05-05T13:58:32.975Z,51.50
2023-05-05T14:02:36.311Z,48.70
2023-05-05T14:06:39.697Z,49.60
2023-05-05T14:10:47.588Z,50.50
2023-05-05T14:14:51.910Z,53.10
2023-05-05T14:18:55.526Z,53.80
2023-05-05T14:22:59.904Z,52.00
2023-05-05T14:27:05.856Z,50.80
2023-05-05T14:31:09.924Z,52.70
2023-05-05T14:35:13.720Z,52.20
2023-05-05T14:39:17.664Z,52.10
2023-05-05T14:43:24.544Z,50.00
2023-05-05T14:47:28.077Z,52.30
2023-05-05T14:51:32.164Z,51.70
2023-05-05T14:55:35.853Z,53.60
2023-05-05T14:59:42.026Z,56.30
2023-05-05T15:03:45.876Z,56.10
2023-05-05T15:07:49.488Z,55.10
2023-05-05T15:11:52.684Z,54.20
2023-05-05T15:15:58.221Z,56.30
2023-05-05T15:20:01.998Z,54.80
2023-05-05T15:24:06.078Z,57.40
2023-05-05T15:28:09.622Z,56.80
2023-05-05T15:32:15.807Z,55.20
2023-05-05T15:36:22.889Z,61.20
2023-05-05T15:40:26.786Z,62.00
2023-05-05T15:44:30.103Z,66.00
2023-05-05T15:48:35.839Z,67.70
2023-05-05T15:52:39.614Z,71.60
2023-05-05T15:56:43.258Z,71.60
2023-05-05T16:00:46.559Z,72.10
2023-05-05T16:04:52.032Z,74.10
2023-05-05T16:08:58.657Z,75.60
2023-05-05T16:13:02.470Z,75.60
2023-05-05T16:17:06.219Z,76.50
2023-05-05T16:21:11.491Z,77.10
2023-05-05T16:25:18.438Z,75.80
2023-05-05T16:29:22.034Z,77.20
2023-05-05T16:33:25.511Z,76.90
2023-05-05T16:37:34.314Z,78.20
2023-05-05T16:41:37.557Z,78.80
2023-05-05T16:45:41.420Z,80.70
2023-05-05T16:49:44.930Z,79.30
2023-05-05T16:53:52.581Z,81.20
2023-05-05T16:57:55.916Z,82.40
2023-05-05T17:01:59.320Z,83.60
2023-05-05T17:06:03.244Z,80.70
2023-05-05T17:10:10.429Z,81.40
2023-05-05T17:14:14.261Z,83.00
2023-05-05T17:18:20.223Z,83.30
2023-05-05T17:22:23.961Z,85.40
2023-05-05T17:26:30.973Z,85.80
2023-05-05T17:30:34.463Z,86.10
2023-05-05T17:34:38.006Z,88.10
2023-05-05T17:38:41.557Z,89.60
2023-05-05T17:42:47.866Z,90.70
2023-05-05T17:46:51.300Z,91.80
2023-05-05T17:50:54.845Z,92.90
2023-05-05T17:54:58.599Z,93.50
2023-05-05T17:59:03.977Z,94.20
2023-05-05T18:03:08.392Z,94.50
2023-05-05T18:07:14.863Z,95.20
2023-05-05T18:11:19.525Z,96.10
2023-05-05T18:15:26.447Z,96.80
2023-05-05T18:19:30.125Z,97.60
2023-05-05T18:23:33.441Z,98.40
2023-05-05T18:27:37.690Z,98.30
2023-05-05T18:31:43.447Z,99.20
2023-05-05T18:35:48.289Z,99.40
2023-05-05T18:39:52.561Z,99.90
2023-05-05T18:43:57.374Z,99.90
2023-05-05T18:48:02.990Z,99.90
2023-05-05T18:52:07.356Z,99.90
2023-05-05T18:56:11.942Z,99.90
2023-05-05T19:00:17.470Z,99.90
2023-05-05T19:04:30.592Z,99.90
2023-05-05T19:08:36.294Z,99.90
2023-05-05T19:12:41.187Z,99.90
2023-05-05T19:16:46.224Z,99.90
2023-05-05T19:20:53.626Z,99.90
2023-05-05T19:24:58.604Z,99.90
2023-05-05T19:29:08.479Z,99.90
2023-05-05T19:33:12.730Z,99.90
2023-05-05T19:37:18.756Z,99.90
2023-05-05T19:41:22.632Z,99.90
2023-05-05T19:45:27.331Z,99.90
2023-05-05T19:49:35.249Z,99.90
2023-05-05T19:53:43.375Z,99.90
2023-05-05T19:57:49.724Z,99.90
2023-05-05T20:01:53.984Z,99.90
2023-05-05T20:05:59.078Z,99.90
2023-05-05T20:10:05.192Z,99.90
2023-05-05T20:14:09.575Z,99.90
2023-05-05T20:18:13.874Z,99.90
2023-05-05T20:22:17.999Z,99.90
2023-05-05T20:26:25.157Z,99.90
2023-05-05T20:30:29.227Z,99.90
2023-05-05T20:34:33.280Z,99.90
2023-05-05T20:38:38.177Z,99.90
2023-05-05T20:42:46.043Z,99.90
2023-05-05T20:46:53.248Z,99.90
2023-05-05T20:50:59.172Z,99.90
2023-05-05T20:55:02.721Z,99.90
2023-05-05T20:59:08.129Z,99.90
2023-05-05T21:03:11.762Z,99.90
2023-05-05T21:07:15.507Z,99.90
2023-05-05T21:11:20.045Z,99.90
2023-05-05T21:15:26.757Z,99.90
2023-05-05T21:19:31.442Z,99.90
2023-05-05T21:23:35.901Z,99.90
2023-05-05T21:27:40.348Z,99.90
2023-05-05T21:31:45.681Z,99.90
2023-05-05T21:35:49.165Z,99.90
2023-05-05T21:39:52.696Z,99.90
2023-05-05T21:43:56.483Z,99.90
2023-05-05T21:48:01.722Z,99.90
2023-05-05T21:52:05.059Z,99.90
2023-05-05T21:56:08.803Z,99.90
2023-05-05T22:00:16.760Z,99.90
2023-05-05T22:04:22.685Z,99.90
2023-05-05T22:08:27.011Z,99.90
2023-05-05T22:12:30.549Z,99.90
2023-05-05T22:16:34.333Z,99.90
2023-05-05T22:20:44.059Z,99.90
2023-05-05T22:24:47.821Z,99.90
2023-05-05T22:28:51.437Z,99.90
2023-05-05T22:32:55.269Z,99.90
2023-05-05T22:37:01.283Z,99.90
2023-05-05T22:41:04.515Z,99.90
2023-05-05T22:45:11.185Z,99.90
2023-05-05T22:49:15.087Z,99.90
2023-05-05T22:53:20.032Z,99.90
2023-05-05T22:57:23.537Z,99.90
2023-05-05T23:01:27.070Z,99.90
2023-05-05T23:05:30.690Z,99.90
2023-05-05T23:09:35.297Z,99.90
2023-05-05T23:13:38.605Z,99.90
2023-05-05T23:17:43.123Z,99.90
2023-05-05T23:21:53.137Z,99.90
2023-05-05T23:25:59.258Z,99.90
2023-05-05T23:30:03.251Z,99.90
2023-05-05T23:34:06.860Z,99.90
2023-05-05T23:38:10.497Z,99.90
2023-05-05T23:42:15.825Z,99.90
2023-05-05T23:46:19.151Z,99.90
2023-05-05T23:50:23.115Z,99.90
2023-05-05T23:54:26.473Z,99.90
2023-05-05T23:58:32.532Z,99.90
